Nearby METAR Reports

 

KMTN - Baltimore/Martin, Maryland, USA
Distance from station: SSE 8mi, 13km
Updated: Wed, 17-Dec-2014 8:45pm EST
Few Clouds
Few Clouds
 Wind from W
Wind: W 12 mph , 19 km/h
Temperature: 37°F , 3°C
Wind Chill: 29°F , -2°C
Dew Point: 28°F , -2°C
Humidity: 70%
Barometer: 30.05 inHg , 1017.6 hPa
Clouds: Few Clouds
Visibility: 10 miles , 16 km
Cloud details: Few Clouds 8000 ft
2014/12/18 01:45 KMTN 180145Z 27010KT 10SM FEW080 03/M02 A3005
KDMH - Baltimore/Dwntwn, Maryland, USA
Distance from station: SW 12mi, 19km
Updated: Wed, 17-Dec-2014 8:54pm EST

 
Temperature: 39°F , 4°C
Dew Point: 23°F , -5°C
Humidity: 52%
Barometer: 30.04 inHg , 1017.3 hPa
2014/12/18 01:54 KDMH 180154Z AUTO 04/M05 A3004 RMK AO1 SLP170 T00391050
 
KBWI - Balto/Wash Intl, Maryland, USA
Distance from station: SSW 20mi, 33km
Updated: Wed, 17-Dec-2014 8:54pm EST
Few Clouds
Few Clouds
 Wind from WNW
Wind: WNW 7 mph , 11 km/h
Temperature: 37°F , 3°C
Wind Chill: 32°F , 0°C
Dew Point: 25°F , -4°C
Humidity: 60%
Barometer: 30.04 inHg , 1017.3 hPa
Clouds: Few Clouds
Visibility: 10 miles , 16 km
Cloud details: Few Clouds 11000 ft
2014/12/18 01:54 KBWI 180154Z 30006KT 10SM FEW110 03/M04 A3004 RMK AO2 SLP171 T00281044
KDMW - Carroll Cnty, Maryland, USA
Distance from station: WNW 30mi, 48km
Updated: Wed, 17-Dec-2014 9:05pm EST
Overcast
Overcast
 Wind from WNW
Wind: WNW 8 mph , 13 km/h
Temperature: 36°F , 2°C
Wind Chill: 30°F , -1°C
Dew Point: 25°F , -4°C
Humidity: 65%
Barometer: 30.03 inHg , 1016.9 hPa
Clouds: Overcast
Visibility: 10 miles , 16 km
Cloud details: Overcast 4100 ft
2014/12/18 02:05 KDMW 180205Z AUTO 30007KT 10SM OVC041 02/M04 A3003 RMK AO2
 
KNAK - Annapolis/Naval, Maryland, USA
Distance from station: S 30mi, 48km
Updated: Wed, 17-Dec-2014 8:54pm EST
Clear
Clear
 Wind from NNW
Wind: NNW 16 mph , 26 km/h
Temperature: 43°F , 6°C
Wind Chill: 35°F , 2°C
Dew Point: 27°F , -3°C
Humidity: 53%
Barometer: 30.02 inHg , 1016.6 hPa
Clouds: Clear
Visibility: 10 miles , 16 km
2014/12/18 01:54 KNAK 180154Z AUTO 33014KT 10SM CLR 06/M03 A3002 RMK AO2 SLP168 T00561028 $
KW29 - Stevensville, Maryland, USA
Distance from station: SSE 31mi, 50km
Updated: Wed, 17-Dec-2014 9:08pm EST

 Wind from NW
Wind: NW 12 mph , 19 km/h, Gust: 17 mph , 28 km/h
Temperature: 41°F , 5°C
Wind Chill: 34°F , 1°C
Dew Point: 28°F , -2°C
Humidity: 61%
Barometer: 30.03 inHg , 1016.9 hPa
Visibility: 10 miles , 16 km
2014/12/18 02:08 KW29 180208Z AUTO 32010G15KT 10SM 05/M02 A3003 RMK AO1
 
KCGS - College Park, Maryland, USA
Distance from station: SW 38mi, 61km
Updated: Wed, 17-Dec-2014 9:05pm EST
Clear
Clear
 Wind from NW
Wind: NW 8 mph , 13 km/h
Temperature: 41°F , 5°C
Wind Chill: 36°F , 2°C
Dew Point: 27°F , -3°C
Humidity: 57%
Barometer: 30.04 inHg , 1017.3 hPa
Clouds: Clear
Visibility: 10 miles , 16 km
2014/12/18 02:05 KCGS 180205Z AUTO 32007KT 10SM CLR 05/M03 A3004 RMK AO1
KGAI - Gaithersburg, Maryland, USA
Distance from station: WSW 40mi, 65km
Updated: Wed, 17-Dec-2014 9:15pm EST
Overcast
Overcast
 Wind from WNW
Wind: WNW 10 mph , 17 km/h
Temperature: 36°F , 2°C
Wind Chill: 29°F , -2°C
Dew Point: 25°F , -4°C
Humidity: 65%
Barometer: 30.09 inHg , 1019 hPa
Clouds: Overcast
Visibility: 10 miles , 16 km
Cloud details: Overcast 4200 ft
2014/12/18 02:15 KGAI 180215Z 29009KT 10SM OVC042 02/M04 A3009 RMK AO1
 
KTHV - York, Pennsylvania, USA
Distance from station: NNW 40mi, 65km
Updated: Wed, 17-Dec-2014 8:53pm EST
Overcast
Overcast
 Wind from WNW
Wind: WNW 7 mph , 11 km/h
Temperature: 37°F , 3°C
Wind Chill: 32°F , 0°C
Dew Point: 25°F , -4°C
Humidity: 60%
Barometer: 30.03 inHg , 1016.9 hPa
Clouds: Overcast
Visibility: 10 miles , 16 km
Cloud details: Overcast 3900 ft
2014/12/18 01:53 KTHV 180153Z AUTO 30006KT 10SM OVC039 03/M04 A3003 RMK AO2 SLP173 T00331039
KFDK - Frederick, Maryland, USA
Distance from station: W 47mi, 75km
Updated: Wed, 17-Dec-2014 9:05pm EST
Overcast
Overcast
 Wind from W
Wind: W 15 mph , 24 km/h, Gust: 24 mph , 39 km/h
Temperature: 41°F , 5°C
Wind Chill: 33°F , 1°C
Dew Point: 21°F , -6°C
Humidity: 45%
Barometer: 30.10 inHg , 1019.3 hPa
Clouds: Overcast
Visibility: 10 miles , 16 km
Cloud details: Overcast 4200 ft
2014/12/18 02:05 KFDK 180205Z AUTO 26013G21KT 10SM OVC042 05/M06 A3010 RMK AO2 LTG DSNT E
 
KESN - Easton/Newnam, Maryland, USA
Distance from station: SSE 48mi, 78km
Updated: Wed, 17-Dec-2014 7:50pm EST
NOT Current
Partly cloudy
Partly cloudy
 Wind from NNW
Wind: NNW 12 mph , 19 km/h, Gust: 17 mph , 28 km/h
Temperature: 45°F , 7°C
Wind Chill: 39°F , 4°C
Dew Point: 30°F , -1°C
Humidity: 57%
Barometer: 30.04 inHg , 1017.3 hPa
Clouds: Partly cloudy
Visibility: 10 miles , 16 km
Cloud details: Partly cloudy 7000 ft
2014/12/18 00:50 KESN 180050Z 33010G15KT 10SM SCT070 07/M01 A3004
KDCA - Washington/Natl, Washington D.c., USA
Distance from station: SW 49mi, 79km
Updated: Wed, 17-Dec-2014 8:52pm EST
Clear
Clear
 Wind from NW
Wind: NW 13 mph , 20 km/h, Gust: 21 mph , 33 km/h
Temperature: 43°F , 6°C
Wind Chill: 36°F , 2°C
Dew Point: 25°F , -4°C
Humidity: 49%
Barometer: 30.05 inHg , 1017.6 hPa
Clouds: Clear
Visibility: 10 miles , 16 km
2014/12/18 01:52 KDCA 180152Z 32011G18KT 10SM CLR 06/M04 A3005 RMK AO2 SLP176 T00611039
 
KLNS - Lancaster, Pennsylvania, USA
Distance from station: N 49mi, 79km
Updated: Wed, 17-Dec-2014 8:53pm EST
Partly cloudy
Partly cloudy
 Wind from NW
Wind: NW 12 mph , 19 km/h
Temperature: 36°F , 2°C
Wind Chill: 28°F , -2°C
Dew Point: 23°F , -5°C
Humidity: 60%
Barometer: 30.00 inHg , 1015.9 hPa
Clouds: Partly cloudy
Visibility: 10 miles , 16 km
Cloud details: Partly cloudy 4800 ft
2014/12/18 01:53 KLNS 180153Z 31010KT 10SM SCT048 02/M05 A3000 RMK AO2 SLP163 T00221050
KILG - Wilmington, Delaware, USA
Distance from station: ENE 50mi, 81km
Updated: Wed, 17-Dec-2014 8:51pm EST
Few Clouds
Few Clouds
 Wind from W
Wind: W 13 mph , 20 km/h
Temperature: 39°F , 4°C
Wind Chill: 31°F , -1°C
Dew Point: 25°F , -4°C
Humidity: 56%
Barometer: 30.00 inHg , 1015.9 hPa
Clouds: Few Clouds
Visibility: 10 miles , 16 km
Cloud details: Few Clouds 4300 ft
2014/12/18 01:51 KILG 180151Z AUTO 28011KT 10SM FEW043 04/M04 A3000 RMK AO2 SLP159 T00441039